sensor_id;sensor_type;location;lat;lon;timestamp;temperature;humidity
39657;DHT22;25337;51.478;7.510;2024-02-21T00:01:39;8.00;99.90
39657;DHT22;25337;51.478;7.510;2024-02-21T00:04:05;7.90;99.90
39657;DHT22;25337;51.478;7.510;2024-02-21T00:06:31;8.00;99.90
39657;DHT22;25337;51.478;7.510;2024-02-21T00:08:57;8.00;99.90
39657;DHT22;25337;51.478;7.510;2024-02-21T00:11:22;8.00;99.90
39657;DHT22;25337;51.478;7.510;2024-02-21T00:13:48;8.00;99.90
39657;DHT22;25337;51.478;7.510;2024-02-21T00:16:14;8.10;99.90
39657;DHT22;25337;51.478;7.510;2024-02-21T00:18:41;8.00;99.90
39657;DHT22;25337;51.478;7.510;2024-02-21T00:21:07;8.10;99.90
39657;DHT22;25337;51.478;7.510;2024-02-21T00:23:32;8.10;99.90
39657;DHT22;25337;51.478;7.510;2024-02-21T00:25:58;8.00;99.90
39657;DHT22;25337;51.478;7.510;2024-02-21T00:28:24;8.00;99.90
39657;DHT22;25337;51.478;7.510;2024-02-21T00:30:49;8.10;99.90
39657;DHT22;25337;51.478;7.510;2024-02-21T00:33:17;8.00;99.90
39657;DHT22;25337;51.478;7.510;2024-02-21T00:35:42;8.00;99.90
39657;DHT22;25337;51.478;7.510;2024-02-21T00:38:08;8.00;99.90
39657;DHT22;25337;51.478;7.510;2024-02-21T00:40:34;8.00;99.90
39657;DHT22;25337;51.478;7.510;2024-02-21T00:43:00;7.90;99.90
39657;DHT22;25337;51.478;7.510;2024-02-21T00:45:26;8.10;99.90
39657;DHT22;25337;51.478;7.510;2024-02-21T00:47:52;8.00;99.90
39657;DHT22;25337;51.478;7.510;2024-02-21T00:50:17;8.00;99.90
39657;DHT22;25337;51.478;7.510;2024-02-21T00:52:43;7.90;99.90
39657;DHT22;25337;51.478;7.510;2024-02-21T00:55:09;8.00;99.90
39657;DHT22;25337;51.478;7.510;2024-02-21T00:57:35;8.00;99.90
39657;DHT22;25337;51.478;7.510;2024-02-21T01:00:04;8.00;99.90
39657;DHT22;25337;51.478;7.510;2024-02-21T01:02:30;7.90;99.90
39657;DHT22;25337;51.478;7.510;2024-02-21T01:04:59;7.90;99.90
39657;DHT22;25337;51.478;7.510;2024-02-21T01:07:24;8.00;99.90
39657;DHT22;25337;51.478;7.510;2024-02-21T01:09:50;7.90;99.90
39657;DHT22;25337;51.478;7.510;2024-02-21T01:12:19;8.00;99.90
39657;DHT22;25337;51.478;7.510;2024-02-21T01:14:44;8.00;99.90
39657;DHT22;25337;51.478;7.510;2024-02-21T01:17:12;8.00;99.90
39657;DHT22;25337;51.478;7.510;2024-02-21T01:19:37;8.00;99.90
39657;DHT22;25337;51.478;7.510;2024-02-21T01:22:04;8.00;99.90
39657;DHT22;25337;51.478;7.510;2024-02-21T01:24:29;8.00;99.90
39657;DHT22;25337;51.478;7.510;2024-02-21T01:26:55;8.00;99.90
39657;DHT22;25337;51.478;7.510;2024-02-21T01:29:20;8.00;99.90
39657;DHT22;25337;51.478;7.510;2024-02-21T01:31:46;8.00;99.90
39657;DHT22;25337;51.478;7.510;2024-02-21T01:34:13;8.00;99.90
39657;DHT22;25337;51.478;7.510;2024-02-21T01:36:38;8.00;99.90
39657;DHT22;25337;51.478;7.510;2024-02-21T01:39:04;8.00;99.90
39657;DHT22;25337;51.478;7.510;2024-02-21T01:41:30;8.00;99.90
39657;DHT22;25337;51.478;7.510;2024-02-21T01:43:56;8.00;99.90
39657;DHT22;25337;51.478;7.510;2024-02-21T01:46:23;8.00;99.90
39657;DHT22;25337;51.478;7.510;2024-02-21T01:48:49;8.00;99.90
39657;DHT22;25337;51.478;7.510;2024-02-21T01:51:15;8.00;99.90
39657;DHT22;25337;51.478;7.510;2024-02-21T01:53:45;8.00;99.90
39657;DHT22;25337;51.478;7.510;2024-02-21T01:56:12;7.90;99.90
39657;DHT22;25337;51.478;7.510;2024-02-21T01:58:40;7.90;99.90
39657;DHT22;25337;51.478;7.510;2024-02-21T02:01:07;7.90;99.90
39657;DHT22;25337;51.478;7.510;2024-02-21T02:03:33;7.90;99.90
39657;DHT22;25337;51.478;7.510;2024-02-21T02:06:00;7.90;99.90
39657;DHT22;25337;51.478;7.510;2024-02-21T02:08:25;7.90;99.90
39657;DHT22;25337;51.478;7.510;2024-02-21T02:10:52;8.00;99.90
39657;DHT22;25337;51.478;7.510;2024-02-21T02:13:18;7.90;99.90
39657;DHT22;25337;51.478;7.510;2024-02-21T02:15:45;7.90;99.90
39657;DHT22;25337;51.478;7.510;2024-02-21T02:18:12;8.00;99.90
39657;DHT22;25337;51.478;7.510;2024-02-21T02:20:39;7.90;99.90
39657;DHT22;25337;51.478;7.510;2024-02-21T02:23:10;8.00;99.90
39657;DHT22;25337;51.478;7.510;2024-02-21T02:25:37;8.00;99.90
39657;DHT22;25337;51.478;7.510;2024-02-21T02:28:04;8.00;99.90
39657;DHT22;25337;51.478;7.510;2024-02-21T02:30:35;8.00;99.90
39657;DHT22;25337;51.478;7.510;2024-02-21T02:33:05;7.90;99.90
39657;DHT22;25337;51.478;7.510;2024-02-21T02:35:31;7.90;99.90
39657;DHT22;25337;51.478;7.510;2024-02-21T02:37:57;7.90;99.90
39657;DHT22;25337;51.478;7.510;2024-02-21T02:40:23;7.90;99.90
39657;DHT22;25337;51.478;7.510;2024-02-21T02:42:49;7.80;99.90
39657;DHT22;25337;51.478;7.510;2024-02-21T02:45:15;7.80;99.90
39657;DHT22;25337;51.478;7.510;2024-02-21T02:47:41;7.80;99.90
39657;DHT22;25337;51.478;7.510;2024-02-21T02:50:07;7.80;99.90
39657;DHT22;25337;51.478;7.510;2024-02-21T02:52:33;7.70;99.90
39657;DHT22;25337;51.478;7.510;2024-02-21T02:54:59;7.70;99.90
39657;DHT22;25337;51.478;7.510;2024-02-21T02:57:24;7.70;99.90
39657;DHT22;25337;51.478;7.510;2024-02-21T02:59:51;7.60;99.90
39657;DHT22;25337;51.478;7.510;2024-02-21T03:02:17;7.50;99.90
39657;DHT22;25337;51.478;7.510;2024-02-21T03:04:43;7.60;99.90
39657;DHT22;25337;51.478;7.510;2024-02-21T03:07:09;7.60;99.90
39657;DHT22;25337;51.478;7.510;2024-02-21T03:09:37;7.60;99.90
39657;DHT22;25337;51.478;7.510;2024-02-21T03:12:03;7.60;99.90
39657;DHT22;25337;51.478;7.510;2024-02-21T03:14:29;7.60;99.90
39657;DHT22;25337;51.478;7.510;2024-02-21T03:16:55;7.60;99.90
39657;DHT22;25337;51.478;7.510;2024-02-21T03:19:21;7.70;99.90
39657;DHT22;25337;51.478;7.510;2024-02-21T03:21:48;7.60;99.90
39657;DHT22;25337;51.478;7.510;2024-02-21T03:24:15;7.70;99.90
39657;DHT22;25337;51.478;7.510;2024-02-21T03:26:41;7.80;99.90
39657;DHT22;25337;51.478;7.510;2024-02-21T03:29:07;7.80;99.90
39657;DHT22;25337;51.478;7.510;2024-02-21T03:31:33;7.80;99.90
39657;DHT22;25337;51.478;7.510;2024-02-21T03:33:58;7.90;99.90
39657;DHT22;25337;51.478;7.510;2024-02-21T03:36:24;7.90;99.90
39657;DHT22;25337;51.478;7.510;2024-02-21T03:38:50;7.90;99.90
39657;DHT22;25337;51.478;7.510;2024-02-21T03:41:15;7.90;99.90
39657;DHT22;25337;51.478;7.510;2024-02-21T03:43:41;7.90;99.90
39657;DHT22;25337;51.478;7.510;2024-02-21T03:46:07;8.00;99.90
39657;DHT22;25337;51.478;7.510;2024-02-21T03:48:32;7.90;99.90
39657;DHT22;25337;51.478;7.510;2024-02-21T03:50:58;7.90;99.90
39657;DHT22;25337;51.478;7.510;2024-02-21T03:53:24;7.90;99.90
39657;DHT22;25337;51.478;7.510;2024-02-21T03:55:50;7.90;99.90
39657;DHT22;25337;51.478;7.510;2024-02-21T03:58:15;7.90;99.90
39657;DHT22;25337;51.478;7.510;2024-02-21T04:00:41;7.90;99.90
39657;DHT22;25337;51.478;7.510;2024-02-21T04:03:06;7.90;99.90
39657;DHT22;25337;51.478;7.510;2024-02-21T04:05:32;7.90;99.90
39657;DHT22;25337;51.478;7.510;2024-02-21T04:07:58;7.90;99.90
39657;DHT22;25337;51.478;7.510;2024-02-21T04:10:24;8.00;99.90
39657;DHT22;25337;51.478;7.510;2024-02-21T04:12:50;7.90;99.90
39657;DHT22;25337;51.478;7.510;2024-02-21T04:15:16;8.00;99.90
39657;DHT22;25337;51.478;7.510;2024-02-21T04:17:42;8.00;99.90
39657;DHT22;25337;51.478;7.510;2024-02-21T04:20:14;8.00;99.90
39657;DHT22;25337;51.478;7.510;2024-02-21T04:22:40;8.00;99.90
39657;DHT22;25337;51.478;7.510;2024-02-21T04:25:06;8.10;99.90
39657;DHT22;25337;51.478;7.510;2024-02-21T04:27:32;8.00;99.90
39657;DHT22;25337;51.478;7.510;2024-02-21T04:29:57;8.10;99.90
39657;DHT22;25337;51.478;7.510;2024-02-21T04:32:23;8.00;99.90
39657;DHT22;25337;51.478;7.510;2024-02-21T04:34:48;8.00;99.90
39657;DHT22;25337;51.478;7.510;2024-02-21T04:37:14;8.10;99.90
39657;DHT22;25337;51.478;7.510;2024-02-21T04:39:40;8.00;99.90
39657;DHT22;25337;51.478;7.510;2024-02-21T04:42:06;8.00;99.90
39657;DHT22;25337;51.478;7.510;2024-02-21T04:44:31;8.00;99.90
39657;DHT22;25337;51.478;7.510;2024-02-21T04:46:58;8.00;99.90
39657;DHT22;25337;51.478;7.510;2024-02-21T04:49:23;8.00;99.90
39657;DHT22;25337;51.478;7.510;2024-02-21T04:51:49;8.00;99.90
39657;DHT22;25337;51.478;7.510;2024-02-21T04:54:14;8.00;99.90
39657;DHT22;25337;51.478;7.510;2024-02-21T04:56:40;8.00;99.90
39657;DHT22;25337;51.478;7.510;2024-02-21T04:59:06;8.00;99.90
39657;DHT22;25337;51.478;7.510;2024-02-21T05:01:32;8.00;99.90
39657;DHT22;25337;51.478;7.510;2024-02-21T05:03:57;8.00;99.90
39657;DHT22;25337;51.478;7.510;2024-02-21T05:06:23;8.00;99.90
39657;DHT22;25337;51.478;7.510;2024-02-21T05:08:49;7.90;99.90
39657;DHT22;25337;51.478;7.510;2024-02-21T05:11:14;7.90;99.90
39657;DHT22;25337;51.478;7.510;2024-02-21T05:13:40;7.90;99.90
39657;DHT22;25337;51.478;7.510;2024-02-21T05:16:06;7.90;99.90
39657;DHT22;25337;51.478;7.510;2024-02-21T05:18:32;7.90;99.90
39657;DHT22;25337;51.478;7.510;2024-02-21T05:20:59;8.00;99.90
39657;DHT22;25337;51.478;7.510;2024-02-21T05:23:24;8.00;99.90
39657;DHT22;25337;51.478;7.510;2024-02-21T05:25:50;8.00;99.90
39657;DHT22;25337;51.478;7.510;2024-02-21T05:28:16;7.90;99.90
39657;DHT22;25337;51.478;7.510;2024-02-21T05:30:42;8.00;99.90
39657;DHT22;25337;51.478;7.510;2024-02-21T05:33:08;8.00;99.90
39657;DHT22;25337;51.478;7.510;2024-02-21T05:35:35;8.00;99.90
39657;DHT22;25337;51.478;7.510;2024-02-21T05:38:01;8.00;99.90
39657;DHT22;25337;51.478;7.510;2024-02-21T05:40:29;8.00;99.90
39657;DHT22;25337;51.478;7.510;2024-02-21T05:42:55;8.00;99.90
39657;DHT22;25337;51.478;7.510;2024-02-21T05:45:20;8.00;99.90
39657;DHT22;25337;51.478;7.510;2024-02-21T05:47:46;8.00;99.90
39657;DHT22;25337;51.478;7.510;2024-02-21T05:50:12;8.00;99.90
39657;DHT22;25337;51.478;7.510;2024-02-21T05:52:37;8.00;99.90
39657;DHT22;25337;51.478;7.510;2024-02-21T05:55:03;8.00;99.90
39657;DHT22;25337;51.478;7.510;2024-02-21T05:57:29;8.00;99.90
39657;DHT22;25337;51.478;7.510;2024-02-21T05:59:54;8.00;99.90
39657;DHT22;25337;51.478;7.510;2024-02-21T06:02:20;8.00;99.90
39657;DHT22;25337;51.478;7.510;2024-02-21T06:04:45;8.00;99.90
39657;DHT22;25337;51.478;7.510;2024-02-21T06:07:11;8.00;99.90
39657;DHT22;25337;51.478;7.510;2024-02-21T06:09:37;8.20;99.90
39657;DHT22;25337;51.478;7.510;2024-02-21T06:12:03;8.00;99.90
39657;DHT22;25337;51.478;7.510;2024-02-21T06:14:28;8.00;99.90
39657;DHT22;25337;51.478;7.510;2024-02-21T06:16:54;8.00;99.90
39657;DHT22;25337;51.478;7.510;2024-02-21T06:19:20;8.00;99.90
39657;DHT22;25337;51.478;7.510;2024-02-21T06:21:45;8.00;99.90
39657;DHT22;25337;51.478;7.510;2024-02-21T06:24:11;8.00;99.90
39657;DHT22;25337;51.478;7.510;2024-02-21T06:26:38;8.00;99.90
39657;DHT22;25337;51.478;7.510;2024-02-21T06:29:05;8.00;99.90
39657;DHT22;25337;51.478;7.510;2024-02-21T06:31:31;8.00;99.90
39657;DHT22;25337;51.478;7.510;2024-02-21T06:33:57;8.00;99.90
39657;DHT22;25337;51.478;7.510;2024-02-21T06:36:23;8.00;99.90
39657;DHT22;25337;51.478;7.510;2024-02-21T06:38:48;8.00;99.90
39657;DHT22;25337;51.478;7.510;2024-02-21T06:41:17;8.00;99.90
39657;DHT22;25337;51.478;7.510;2024-02-21T06:43:47;8.10;99.90
39657;DHT22;25337;51.478;7.510;2024-02-21T06:46:27;8.10;99.90
39657;DHT22;25337;51.478;7.510;2024-02-21T06:48:54;8.10;99.90
39657;DHT22;25337;51.478;7.510;2024-02-21T06:51:22;8.10;99.90
39657;DHT22;25337;51.478;7.510;2024-02-21T06:53:48;8.10;99.90
39657;DHT22;25337;51.478;7.510;2024-02-21T06:56:13;8.10;99.90
39657;DHT22;25337;51.478;7.510;2024-02-21T06:58:39;8.20;99.90
39657;DHT22;25337;51.478;7.510;2024-02-21T07:01:05;8.10;99.90
39657;DHT22;25337;51.478;7.510;2024-02-21T07:03:30;8.20;99.90
39657;DHT22;25337;51.478;7.510;2024-02-21T07:05:56;8.20;99.90
39657;DHT22;25337;51.478;7.510;2024-02-21T07:08:21;8.30;99.90
39657;DHT22;25337;51.478;7.510;2024-02-21T07:10:47;8.20;99.90
39657;DHT22;25337;51.478;7.510;2024-02-21T07:13:13;8.20;99.90
39657;DHT22;25337;51.478;7.510;2024-02-21T07:15:41;8.20;99.90
39657;DHT22;25337;51.478;7.510;2024-02-21T07:18:06;8.20;99.90
39657;DHT22;25337;51.478;7.510;2024-02-21T07:20:32;8.20;99.90
39657;DHT22;25337;51.478;7.510;2024-02-21T07:22:59;8.30;99.90
39657;DHT22;25337;51.478;7.510;2024-02-21T07:25:25;8.20;99.90
39657;DHT22;25337;51.478;7.510;2024-02-21T07:27:50;8.30;99.90
39657;DHT22;25337;51.478;7.510;2024-02-21T07:30:16;8.30;99.90
39657;DHT22;25337;51.478;7.510;2024-02-21T07:32:42;8.30;99.90
39657;DHT22;25337;51.478;7.510;2024-02-21T07:35:07;8.30;99.90
39657;DHT22;25337;51.478;7.510;2024-02-21T07:37:37;8.40;99.90
39657;DHT22;25337;51.478;7.510;2024-02-21T07:40:06;8.40;99.90
39657;DHT22;25337;51.478;7.510;2024-02-21T07:42:37;8.40;99.90
39657;DHT22;25337;51.478;7.510;2024-02-21T07:45:03;8.40;99.90
39657;DHT22;25337;51.478;7.510;2024-02-21T07:47:29;8.40;99.90
39657;DHT22;25337;51.478;7.510;2024-02-21T07:49:54;8.50;99.90
39657;DHT22;25337;51.478;7.510;2024-02-21T07:52:20;8.50;99.90
39657;DHT22;25337;51.478;7.510;2024-02-21T07:54:45;8.60;99.90
39657;DHT22;25337;51.478;7.510;2024-02-21T07:57:11;8.60;99.90
39657;DHT22;25337;51.478;7.510;2024-02-21T07:59:37;8.70;99.90
39657;DHT22;25337;51.478;7.510;2024-02-21T08:02:02;8.70;99.90
39657;DHT22;25337;51.478;7.510;2024-02-21T08:04:32;8.70;99.90
39657;DHT22;25337;51.478;7.510;2024-02-21T08:06:57;8.80;99.90
39657;DHT22;25337;51.478;7.510;2024-02-21T08:09:26;8.60;99.90
39657;DHT22;25337;51.478;7.510;2024-02-21T08:11:53;8.70;99.90
39657;DHT22;25337;51.478;7.510;2024-02-21T08:14:19;8.70;99.90
39657;DHT22;25337;51.478;7.510;2024-02-21T08:16:45;8.70;99.90
39657;DHT22;25337;51.478;7.510;2024-02-21T08:19:10;8.80;99.90
39657;DHT22;25337;51.478;7.510;2024-02-21T08:21:36;8.90;99.90
39657;DHT22;25337;51.478;7.510;2024-02-21T08:24:02;8.90;99.90
39657;DHT22;25337;51.478;7.510;2024-02-21T08:26:28;8.90;99.90
39657;DHT22;25337;51.478;7.510;2024-02-21T08:28:58;8.90;99.90
39657;DHT22;25337;51.478;7.510;2024-02-21T08:31:25;9.00;99.90
39657;DHT22;25337;51.478;7.510;2024-02-21T08:33:57;8.90;99.90
39657;DHT22;25337;51.478;7.510;2024-02-21T08:36:28;9.10;99.90
39657;DHT22;25337;51.478;7.510;2024-02-21T08:38:54;9.10;99.90
39657;DHT22;25337;51.478;7.510;2024-02-21T08:41:19;9.10;99.90
39657;DHT22;25337;51.478;7.510;2024-02-21T08:43:47;9.10;99.90
39657;DHT22;25337;51.478;7.510;2024-02-21T08:46:12;9.20;99.90
39657;DHT22;25337;51.478;7.510;2024-02-21T08:48:38;9.20;99.90
39657;DHT22;25337;51.478;7.510;2024-02-21T08:51:04;9.20;99.90
39657;DHT22;25337;51.478;7.510;2024-02-21T08:53:29;9.10;99.90
39657;DHT22;25337;51.478;7.510;2024-02-21T08:55:55;9.10;99.90
39657;DHT22;25337;51.478;7.510;2024-02-21T08:58:20;9.00;99.90
39657;DHT22;25337;51.478;7.510;2024-02-21T09:00:48;9.00;99.90
39657;DHT22;25337;51.478;7.510;2024-02-21T09:03:14;9.00;99.90
39657;DHT22;25337;51.478;7.510;2024-02-21T09:05:40;8.90;99.90
39657;DHT22;25337;51.478;7.510;2024-02-21T09:08:06;8.90;99.90
39657;DHT22;25337;51.478;7.510;2024-02-21T09:10:32;8.70;99.90
39657;DHT22;25337;51.478;7.510;2024-02-21T09:12:57;8.70;99.90
39657;DHT22;25337;51.478;7.510;2024-02-21T09:15:23;8.70;99.90
39657;DHT22;25337;51.478;7.510;2024-02-21T09:17:49;8.60;99.90
39657;DHT22;25337;51.478;7.510;2024-02-21T09:20:15;8.70;99.90
39657;DHT22;25337;51.478;7.510;2024-02-21T09:22:41;8.60;99.90
39657;DHT22;25337;51.478;7.510;2024-02-21T09:25:08;8.60;99.90
39657;DHT22;25337;51.478;7.510;2024-02-21T09:27:35;8.60;99.90
39657;DHT22;25337;51.478;7.510;2024-02-21T09:30:01;8.60;99.90
39657;DHT22;25337;51.478;7.510;2024-02-21T09:32:26;8.70;99.90
39657;DHT22;25337;51.478;7.510;2024-02-21T09:34:52;8.90;99.90
39657;DHT22;25337;51.478;7.510;2024-02-21T09:37:19;9.00;99.90
39657;DHT22;25337;51.478;7.510;2024-02-21T09:39:45;8.90;99.90
39657;DHT22;25337;51.478;7.510;2024-02-21T09:42:14;8.80;99.90
39657;DHT22;25337;51.478;7.510;2024-02-21T09:44:43;8.70;99.90
39657;DHT22;25337;51.478;7.510;2024-02-21T09:47:22;8.80;99.90
39657;DHT22;25337;51.478;7.510;2024-02-21T09:49:50;8.80;99.90
39657;DHT22;25337;51.478;7.510;2024-02-21T09:52:17;8.90;99.90
39657;DHT22;25337;51.478;7.510;2024-02-21T09:54:44;9.00;99.90
39657;DHT22;25337;51.478;7.510;2024-02-21T09:57:10;9.00;99.90
39657;DHT22;25337;51.478;7.510;2024-02-21T09:59:37;9.00;99.90
39657;DHT22;25337;51.478;7.510;2024-02-21T10:02:03;8.90;99.90
39657;DHT22;25337;51.478;7.510;2024-02-21T10:04:30;8.90;99.90
39657;DHT22;25337;51.478;7.510;2024-02-21T10:06:56;8.90;99.90
39657;DHT22;25337;51.478;7.510;2024-02-21T10:09:26;8.80;99.90
39657;DHT22;25337;51.478;7.510;2024-02-21T10:11:56;8.80;99.90
39657;DHT22;25337;51.478;7.510;2024-02-21T10:14:32;8.80;99.90
39657;DHT22;25337;51.478;7.510;2024-02-21T10:16:58;8.80;99.90
39657;DHT22;25337;51.478;7.510;2024-02-21T10:19:27;8.80;99.90
39657;DHT22;25337;51.478;7.510;2024-02-21T10:22:04;8.80;99.90
39657;DHT22;25337;51.478;7.510;2024-02-21T10:24:30;8.80;99.90
39657;DHT22;25337;51.478;7.510;2024-02-21T10:27:03;8.70;99.90
39657;DHT22;25337;51.478;7.510;2024-02-21T10:29:30;8.70;99.90
39657;DHT22;25337;51.478;7.510;2024-02-21T10:32:13;8.60;99.90
39657;DHT22;25337;51.478;7.510;2024-02-21T10:34:40;8.70;99.90
39657;DHT22;25337;51.478;7.510;2024-02-21T10:37:07;8.50;99.90
39657;DHT22;25337;51.478;7.510;2024-02-21T10:39:42;8.60;99.90
39657;DHT22;25337;51.478;7.510;2024-02-21T10:42:11;8.60;99.90
39657;DHT22;25337;51.478;7.510;2024-02-21T10:44:38;8.60;99.90
39657;DHT22;25337;51.478;7.510;2024-02-21T10:47:08;8.70;99.90
39657;DHT22;25337;51.478;7.510;2024-02-21T10:49:38;8.70;99.90
39657;DHT22;25337;51.478;7.510;2024-02-21T10:52:22;8.80;99.90
39657;DHT22;25337;51.478;7.510;2024-02-21T10:55:03;8.80;99.90
39657;DHT22;25337;51.478;7.510;2024-02-21T10:57:29;8.80;99.90
39657;DHT22;25337;51.478;7.510;2024-02-21T10:59:58;8.90;99.90
39657;DHT22;25337;51.478;7.510;2024-02-21T11:02:25;8.90;99.90
39657;DHT22;25337;51.478;7.510;2024-02-21T11:04:54;8.90;99.90
39657;DHT22;25337;51.478;7.510;2024-02-21T11:07:20;8.90;99.90
39657;DHT22;25337;51.478;7.510;2024-02-21T11:09:52;9.10;99.90
39657;DHT22;25337;51.478;7.510;2024-02-21T11:12:21;9.20;99.90
39657;DHT22;25337;51.478;7.510;2024-02-21T11:14:47;9.30;99.90
39657;DHT22;25337;51.478;7.510;2024-02-21T11:17:19;9.40;99.90
39657;DHT22;25337;51.478;7.510;2024-02-21T11:19:46;9.40;99.90
39657;DHT22;25337;51.478;7.510;2024-02-21T11:22:17;9.40;99.90
39657;DHT22;25337;51.478;7.510;2024-02-21T11:24:42;9.50;99.90
39657;DHT22;25337;51.478;7.510;2024-02-21T11:27:15;9.70;99.90
39657;DHT22;25337;51.478;7.510;2024-02-21T11:29:47;9.90;99.90
39657;DHT22;25337;51.478;7.510;2024-02-21T11:32:15;10.10;99.90
39657;DHT22;25337;51.478;7.510;2024-02-21T11:34:52;10.20;99.90
39657;DHT22;25337;51.478;7.510;2024-02-21T11:37:17;10.20;99.90
39657;DHT22;25337;51.478;7.510;2024-02-21T11:39:43;10.10;99.90
39657;DHT22;25337;51.478;7.510;2024-02-21T11:42:09;10.20;99.90
39657;DHT22;25337;51.478;7.510;2024-02-21T11:44:36;10.40;99.90
39657;DHT22;25337;51.478;7.510;2024-02-21T11:47:09;10.40;99.90
39657;DHT22;25337;51.478;7.510;2024-02-21T11:49:42;10.40;99.90
39657;DHT22;25337;51.478;7.510;2024-02-21T11:52:08;10.30;99.90
39657;DHT22;25337;51.478;7.510;2024-02-21T11:54:34;10.20;99.90
39657;DHT22;25337;51.478;7.510;2024-02-21T11:57:00;10.10;99.90
39657;DHT22;25337;51.478;7.510;2024-02-21T11:59:26;10.20;99.90
39657;DHT22;25337;51.478;7.510;2024-02-21T12:01:53;10.50;99.90
39657;DHT22;25337;51.478;7.510;2024-02-21T12:04:22;10.70;99.90
39657;DHT22;25337;51.478;7.510;2024-02-21T12:06:49;10.80;99.90
39657;DHT22;25337;51.478;7.510;2024-02-21T12:09:15;10.80;99.90
39657;DHT22;25337;51.478;7.510;2024-02-21T12:11:42;10.70;99.90
39657;DHT22;25337;51.478;7.510;2024-02-21T12:14:08;10.60;99.90
39657;DHT22;25337;51.478;7.510;2024-02-21T12:16:35;10.50;99.90
39657;DHT22;25337;51.478;7.510;2024-02-21T12:19:04;10.50;99.90
39657;DHT22;25337;51.478;7.510;2024-02-21T12:21:31;10.60;99.90
39657;DHT22;25337;51.478;7.510;2024-02-21T12:23:58;10.70;99.90
39657;DHT22;25337;51.478;7.510;2024-02-21T12:26:24;10.90;99.90
39657;DHT22;25337;51.478;7.510;2024-02-21T12:28:49;11.00;99.90
39657;DHT22;25337;51.478;7.510;2024-02-21T12:31:15;11.10;99.90
39657;DHT22;25337;51.478;7.510;2024-02-21T12:33:42;11.10;99.90
39657;DHT22;25337;51.478;7.510;2024-02-21T12:36:08;11.10;99.90
39657;DHT22;25337;51.478;7.510;2024-02-21T12:38:34;11.00;99.90
39657;DHT22;25337;51.478;7.510;2024-02-21T12:41:00;10.90;99.90
39657;DHT22;25337;51.478;7.510;2024-02-21T12:43:26;10.80;99.90
39657;DHT22;25337;51.478;7.510;2024-02-21T12:45:52;10.70;99.90
39657;DHT22;25337;51.478;7.510;2024-02-21T12:48:18;10.50;99.90
39657;DHT22;25337;51.478;7.510;2024-02-21T12:50:50;10.50;99.90
39657;DHT22;25337;51.478;7.510;2024-02-21T12:53:17;10.50;99.90
39657;DHT22;25337;51.478;7.510;2024-02-21T12:55:45;10.60;99.90
39657;DHT22;25337;51.478;7.510;2024-02-21T12:58:11;10.60;99.90
39657;DHT22;25337;51.478;7.510;2024-02-21T13:00:38;10.60;99.90
39657;DHT22;25337;51.478;7.510;2024-02-21T13:03:04;10.70;99.90
39657;DHT22;25337;51.478;7.510;2024-02-21T13:05:30;10.80;99.90
39657;DHT22;25337;51.478;7.510;2024-02-21T13:07:57;10.90;99.90
39657;DHT22;25337;51.478;7.510;2024-02-21T13:10:22;11.10;99.90
39657;DHT22;25337;51.478;7.510;2024-02-21T13:12:48;11.20;99.90
39657;DHT22;25337;51.478;7.510;2024-02-21T13:15:13;11.30;99.90
39657;DHT22;25337;51.478;7.510;2024-02-21T13:17:41;11.30;99.90
39657;DHT22;25337;51.478;7.510;2024-02-21T13:20:07;11.30;99.90
39657;DHT22;25337;51.478;7.510;2024-02-21T13:22:34;11.40;99.90
39657;DHT22;25337;51.478;7.510;2024-02-21T13:25:00;11.50;99.90
39657;DHT22;25337;51.478;7.510;2024-02-21T13:27:26;11.50;99.90
39657;DHT22;25337;51.478;7.510;2024-02-21T13:29:51;11.50;99.90
39657;DHT22;25337;51.478;7.510;2024-02-21T13:32:18;11.60;99.90
39657;DHT22;25337;51.478;7.510;2024-02-21T13:34:44;11.60;99.90
39657;DHT22;25337;51.478;7.510;2024-02-21T13:37:09;11.60;99.90
39657;DHT22;25337;51.478;7.510;2024-02-21T13:39:36;11.60;99.90
39657;DHT22;25337;51.478;7.510;2024-02-21T13:42:03;11.70;99.90
39657;DHT22;25337;51.478;7.510;2024-02-21T13:44:31;11.80;99.90
39657;DHT22;25337;51.478;7.510;2024-02-21T13:46:57;11.90;99.90
39657;DHT22;25337;51.478;7.510;2024-02-21T13:49:22;12.00;99.90
39657;DHT22;25337;51.478;7.510;2024-02-21T13:51:48;12.00;99.90
39657;DHT22;25337;51.478;7.510;2024-02-21T13:54:14;12.00;99.90
39657;DHT22;25337;51.478;7.510;2024-02-21T13:56:45;12.10;99.90
39657;DHT22;25337;51.478;7.510;2024-02-21T13:59:12;11.90;99.90
39657;DHT22;25337;51.478;7.510;2024-02-21T14:01:39;11.80;99.90
39657;DHT22;25337;51.478;7.510;2024-02-21T14:04:04;11.80;99.90
39657;DHT22;25337;51.478;7.510;2024-02-21T14:06:30;11.80;99.90
39657;DHT22;25337;51.478;7.510;2024-02-21T14:08:55;11.80;99.90
39657;DHT22;25337;51.478;7.510;2024-02-21T14:11:21;11.80;99.90
39657;DHT22;25337;51.478;7.510;2024-02-21T14:13:47;11.70;99.90
39657;DHT22;25337;51.478;7.510;2024-02-21T14:16:12;11.70;99.90
39657;DHT22;25337;51.478;7.510;2024-02-21T14:18:40;11.80;99.90
39657;DHT22;25337;51.478;7.510;2024-02-21T14:21:08;11.70;99.90
39657;DHT22;25337;51.478;7.510;2024-02-21T14:23:36;11.60;99.90
39657;DHT22;25337;51.478;7.510;2024-02-21T14:26:03;11.60;99.90
39657;DHT22;25337;51.478;7.510;2024-02-21T14:28:29;11.60;99.90
39657;DHT22;25337;51.478;7.510;2024-02-21T14:30:54;11.40;99.90
39657;DHT22;25337;51.478;7.510;2024-02-21T14:33:23;11.40;99.90
39657;DHT22;25337;51.478;7.510;2024-02-21T14:35:49;11.30;99.90
39657;DHT22;25337;51.478;7.510;2024-02-21T14:38:15;11.20;99.90
39657;DHT22;25337;51.478;7.510;2024-02-21T14:40:40;11.10;99.90
39657;DHT22;25337;51.478;7.510;2024-02-21T14:43:06;11.10;99.90
39657;DHT22;25337;51.478;7.510;2024-02-21T14:45:31;11.20;99.90
39657;DHT22;25337;51.478;7.510;2024-02-21T14:47:57;11.20;99.90
39657;DHT22;25337;51.478;7.510;2024-02-21T14:50:22;11.20;99.90
39657;DHT22;25337;51.478;7.510;2024-02-21T14:52:49;11.10;99.90
39657;DHT22;25337;51.478;7.510;2024-02-21T14:55:15;11.00;99.90
39657;DHT22;25337;51.478;7.510;2024-02-21T14:57:40;11.00;99.90
39657;DHT22;25337;51.478;7.510;2024-02-21T15:00:08;11.00;99.90
39657;DHT22;25337;51.478;7.510;2024-02-21T15:02:36;11.00;99.90
39657;DHT22;25337;51.478;7.510;2024-02-21T15:05:02;10.90;99.90
39657;DHT22;25337;51.478;7.510;2024-02-21T15:07:29;10.90;99.90
39657;DHT22;25337;51.478;7.510;2024-02-21T15:09:54;10.90;99.90
39657;DHT22;25337;51.478;7.510;2024-02-21T15:12:20;10.90;99.90
39657;DHT22;25337;51.478;7.510;2024-02-21T15:14:47;10.90;99.90
39657;DHT22;25337;51.478;7.510;2024-02-21T15:17:13;10.90;99.90
39657;DHT22;25337;51.478;7.510;2024-02-21T15:19:39;10.80;99.90
39657;DHT22;25337;51.478;7.510;2024-02-21T15:22:09;10.70;99.90
39657;DHT22;25337;51.478;7.510;2024-02-21T15:24:37;10.70;99.90
39657;DHT22;25337;51.478;7.510;2024-02-21T15:27:03;10.50;99.90
39657;DHT22;25337;51.478;7.510;2024-02-21T15:29:29;10.60;99.90
39657;DHT22;25337;51.478;7.510;2024-02-21T15:31:55;10.60;99.90
39657;DHT22;25337;51.478;7.510;2024-02-21T15:34:21;10.60;99.90
39657;DHT22;25337;51.478;7.510;2024-02-21T15:36:47;10.50;99.90
39657;DHT22;25337;51.478;7.510;2024-02-21T15:39:12;10.40;99.90